Jasonville, Indiana
Current Conditions -  °F | °C
As of 4:53 PM on Saturday 20 Dec 2014 (Local Time) from KHUF Reporting Station
Overcast Overcast  
Wind Chill: 30°   Ceiling: 6000
Heat Index: 34°   Visibility: 10mi
Dew Point: 25°   Wind: 5mph
Humidity: 70%   Direction: 150°SSE
Pressure: 30.28"   Gusts: NA
Location:  39.16°N, 87.2°W
Report Text: KHUF 202153Z 15004KT 10SM OVC060 01/M04 A3028 RMK AO2 SLP260 T00111039
Loading
Personal Weather Stations






























Interactive Weather Map New forecast layout! Learn more

10-Day Weather Forecast

Advertisements
Track Severe Weather on mobile